createdAt,value
2022-11-29T00:01:40.044Z,101134.50
2022-11-29T00:04:07.887Z,101132.91
2022-11-29T00:06:36.303Z,101131.19
2022-11-29T00:09:06.589Z,101128.09
2022-11-29T00:11:55.060Z,101130.41
2022-11-29T00:14:24.628Z,101121.03
2022-11-29T00:17:02.024Z,101117.38
2022-11-29T00:19:34.969Z,101117.03
2022-11-29T00:22:03.803Z,101114.16
2022-11-29T00:24:32.507Z,101108.34
2022-11-29T00:27:02.265Z,101111.88
2022-11-29T00:29:30.391Z,101106.09
2022-11-29T00:31:59.088Z,101112.03
2022-11-29T00:34:27.355Z,101103.28
2022-11-29T00:36:55.475Z,101101.97
2022-11-29T00:39:23.246Z,101113.06
2022-11-29T00:41:50.789Z,101099.75
2022-11-29T00:44:20.570Z,101116.66
2022-11-29T00:46:49.174Z,101113.06
2022-11-29T00:49:17.049Z,101115.97
2022-11-29T00:51:44.932Z,101110.75
2022-11-29T00:54:12.728Z,101110.31
2022-11-29T00:56:40.333Z,101113.28
2022-11-29T00:59:07.973Z,101104.44
2022-11-29T01:01:35.638Z,101105.56
2022-11-29T01:04:03.871Z,101103.28
2022-11-29T01:06:31.441Z,101105.75
2022-11-29T01:08:59.868Z,101111.75
2022-11-29T01:11:28.159Z,101106.22
2022-11-29T01:13:58.783Z,101107.44
2022-11-29T01:16:27.780Z,101109.78
2022-11-29T01:18:55.821Z,101109.91
2022-11-29T01:21:24.840Z,101109.00
2022-11-29T01:23:54.263Z,101101.78
2022-11-29T01:26:26.208Z,101106.09
2022-11-29T01:28:55.778Z,101096.56
2022-11-29T01:31:27.052Z,101107.38
2022-11-29T01:33:57.522Z,101098.81
2022-11-29T01:36:26.998Z,101105.13
2022-11-29T01:38:54.950Z,101106.44
2022-11-29T01:41:28.295Z,101109.97
2022-11-29T01:44:16.119Z,101104.56
2022-11-29T01:46:46.004Z,101110.44
2022-11-29T01:49:21.396Z,101102.13
2022-11-29T01:51:53.437Z,101101.13
2022-11-29T01:54:22.673Z,101097.75
2022-11-29T01:56:52.664Z,101099.44
2022-11-29T01:59:23.595Z,101101.28
2022-11-29T02:01:52.642Z,101091.97
2022-11-29T02:04:20.588Z,101092.28
2022-11-29T02:06:48.450Z,101090.38
2022-11-29T02:09:24.253Z,101083.63
2022-11-29T02:12:16.543Z,101077.56
2022-11-29T02:14:52.986Z,101085.13
2022-11-29T02:17:30.824Z,101076.59
2022-11-29T02:20:07.497Z,101077.31
2022-11-29T02:22:45.922Z,101076.38
2022-11-29T02:25:28.032Z,101076.00
2022-11-29T02:28:20.442Z,101072.34
2022-11-29T02:31:25.904Z,101062.81
2022-11-29T02:34:18.605Z,101066.16
2022-11-29T02:36:55.847Z,101073.38
2022-11-29T02:39:57.269Z,101078.28
2022-11-29T02:43:04.227Z,101067.69
2022-11-29T02:45:37.608Z,101067.88
2022-11-29T02:48:41.672Z,101065.19
2022-11-29T02:51:21.404Z,101058.16
2022-11-29T02:53:58.171Z,101065.91
2022-11-29T02:56:34.957Z,101057.16
2022-11-29T02:59:20.875Z,101065.72
2022-11-29T03:02:09.811Z,101058.34
2022-11-29T03:05:03.783Z,101053.13
2022-11-29T03:08:05.817Z,101050.63
2022-11-29T03:10:46.597Z,101060.16
2022-11-29T03:13:28.138Z,101062.91
2022-11-29T03:16:06.408Z,101060.69
2022-11-29T03:18:50.932Z,101064.59
2022-11-29T03:21:47.050Z,101061.59
2022-11-29T03:24:37.558Z,101063.34
2022-11-29T03:27:12.478Z,101066.22
2022-11-29T03:29:49.602Z,101062.81
2022-11-29T03:32:48.612Z,101057.69
2022-11-29T03:35:22.485Z,101063.81
2022-11-29T03:37:50.311Z,101063.88
2022-11-29T03:40:29.600Z,101065.16
2022-11-29T03:43:04.349Z,101063.81
2022-11-29T03:45:39.403Z,101060.31
2022-11-29T03:48:17.597Z,101059.38
2022-11-29T03:50:54.947Z,101050.72
2022-11-29T03:53:47.494Z,101060.16
2022-11-29T03:56:31.329Z,101043.25
2022-11-29T03:59:27.276Z,101053.69
2022-11-29T04:02:01.209Z,101050.00
2022-11-29T04:04:32.052Z,101059.31
2022-11-29T04:07:12.223Z,101060.72
2022-11-29T04:09:49.517Z,101062.91
2022-11-29T04:12:32.716Z,101055.13
2022-11-29T04:15:27.966Z,101052.84
2022-11-29T04:18:14.262Z,101058.59
2022-11-29T04:21:13.142Z,101058.91
2022-11-29T04:24:03.197Z,101054.16
2022-11-29T04:26:52.401Z,101050.91
2022-11-29T04:29:35.122Z,101054.09
2022-11-29T04:32:22.716Z,101053.72
2022-11-29T04:35:32.499Z,101053.84
2022-11-29T04:38:06.279Z,101054.09
2022-11-29T04:40:56.060Z,101058.78
2022-11-29T04:44:18.755Z,101053.06
2022-11-29T04:47:19.189Z,101051.56
2022-11-29T04:50:10.144Z,101056.91
2022-11-29T04:52:52.459Z,101056.25
2022-11-29T04:55:29.417Z,101052.22
2022-11-29T04:58:13.340Z,101052.78
2022-11-29T05:00:54.050Z,101060.16
2022-11-29T05:03:34.361Z,101066.81
2022-11-29T05:06:17.145Z,101067.44
2022-11-29T05:08:58.669Z,101069.38
2022-11-29T05:11:43.455Z,101067.66
2022-11-29T05:14:20.596Z,101065.44
2022-11-29T05:17:01.420Z,101067.78
2022-11-29T05:20:01.082Z,101066.09
2022-11-29T05:22:44.696Z,101067.44
2022-11-29T05:25:29.894Z,101070.69
2022-11-29T05:28:29.669Z,101079.13
2022-11-29T05:31:20.829Z,101071.44
2022-11-29T05:34:08.756Z,101079.28
2022-11-29T05:37:02.090Z,101071.25
2022-11-29T05:39:39.002Z,101081.06
2022-11-29T05:42:34.808Z,101078.53
2022-11-29T05:45:17.824Z,101076.66
2022-11-29T05:47:51.519Z,101081.13
2022-11-29T05:50:48.678Z,101074.66
2022-11-29T05:53:29.548Z,101083.31
2022-11-29T05:56:13.589Z,101088.59
2022-11-29T05:58:59.648Z,101078.03
2022-11-29T06:02:06.541Z,101087.94
2022-11-29T06:04:46.490Z,101094.91
2022-11-29T06:07:14.809Z,101084.06
2022-11-29T06:10:02.170Z,101090.81
2022-11-29T06:12:35.846Z,101085.75
2022-11-29T06:15:32.933Z,101092.13
2022-11-29T06:18:19.646Z,101088.22
2022-11-29T06:20:52.954Z,101092.06
2022-11-29T06:23:48.608Z,101089.78
2022-11-29T06:26:34.306Z,101093.44
2022-11-29T06:29:23.905Z,101090.81
2022-11-29T06:32:03.379Z,101094.22
2022-11-29T06:34:56.785Z,101091.53
2022-11-29T06:37:45.147Z,101106.03
2022-11-29T06:40:16.079Z,101107.13
2022-11-29T06:42:45.032Z,101099.31
2022-11-29T06:45:14.438Z,101104.41
2022-11-29T06:48:14.689Z,101109.84
2022-11-29T06:50:58.734Z,101105.22
2022-11-29T06:53:43.819Z,101106.78
2022-11-29T06:56:49.568Z,101107.06
2022-11-29T06:59:23.101Z,101108.31
2022-11-29T07:02:47.279Z,101106.06
2022-11-29T07:05:27.802Z,101111.72
2022-11-29T07:07:58.955Z,101111.41
2022-11-29T07:10:27.548Z,101114.66
2022-11-29T07:12:55.483Z,101112.03
2022-11-29T07:15:23.862Z,101110.69
2022-11-29T07:18:09.565Z,101110.56
2022-11-29T07:20:51.873Z,101116.28
2022-11-29T07:23:51.201Z,101110.81
2022-11-29T07:26:33.581Z,101115.59
2022-11-29T07:29:32.457Z,101114.88
2022-11-29T07:32:26.536Z,101110.78
2022-11-29T07:35:16.159Z,101112.00
2022-11-29T07:38:03.494Z,101110.06
2022-11-29T07:40:40.423Z,101113.25
2022-11-29T07:43:21.934Z,101111.16
2022-11-29T07:45:51.890Z,101109.94
2022-11-29T07:48:19.703Z,101113.38
2022-11-29T07:50:47.409Z,101110.69
2022-11-29T07:53:20.217Z,101116.22
2022-11-29T07:55:51.246Z,101116.75
2022-11-29T07:58:21.133Z,101113.56
2022-11-29T08:00:49.738Z,101120.41
2022-11-29T08:03:17.464Z,101122.28
2022-11-29T08:05:47.692Z,101118.56
2022-11-29T08:08:15.416Z,101111.97
2022-11-29T08:10:43.303Z,101116.19
2022-11-29T08:13:11.017Z,101119.59
2022-11-29T08:15:45.626Z,101109.94
2022-11-29T08:18:14.525Z,101119.00
2022-11-29T08:20:43.215Z,101121.25
2022-11-29T08:23:13.536Z,101120.88
2022-11-29T08:25:41.998Z,101121.09
2022-11-29T08:28:10.117Z,101120.69
2022-11-29T08:30:38.328Z,101121.25
2022-11-29T08:33:07.194Z,101125.00
2022-11-29T08:35:35.014Z,101120.41
2022-11-29T08:38:03.912Z,101128.25
2022-11-29T08:40:31.617Z,101121.91
2022-11-29T08:42:59.325Z,101129.81
2022-11-29T08:45:26.973Z,101130.53
2022-11-29T08:47:54.695Z,101129.59
2022-11-29T08:50:22.584Z,101132.06
2022-11-29T08:53:09.689Z,101135.00
2022-11-29T08:55:40.733Z,101134.31
2022-11-29T08:58:11.749Z,101135.84
2022-11-29T09:00:40.975Z,101137.19
2022-11-29T09:03:28.001Z,101141.75
2022-11-29T09:05:57.631Z,101144.38
2022-11-29T09:08:25.342Z,101144.41
2022-11-29T09:10:53.361Z,101141.19
2022-11-29T09:13:20.953Z,101145.75
2022-11-29T09:15:48.651Z,101147.53
2022-11-29T09:18:16.764Z,101158.47
2022-11-29T09:20:45.493Z,101164.06
2022-11-29T09:23:13.446Z,101158.75
2022-11-29T09:25:42.343Z,101159.16
2022-11-29T09:28:11.428Z,101162.16
2022-11-29T09:30:39.049Z,101162.03
2022-11-29T09:33:07.075Z,101161.38
2022-11-29T09:35:35.556Z,101166.69
2022-11-29T09:38:03.300Z,101166.28
2022-11-29T09:40:55.589Z,101168.56
2022-11-29T09:43:45.374Z,101162.88
2022-11-29T09:46:43.526Z,101167.66
2022-11-29T09:49:45.842Z,101169.56
2022-11-29T09:52:41.499Z,101166.94
2022-11-29T09:55:55.863Z,101158.38
2022-11-29T09:58:28.743Z,101168.22
2022-11-29T10:01:05.488Z,101164.94
2022-11-29T10:03:39.701Z,101156.22
2022-11-29T10:06:28.280Z,101157.63
2022-11-29T10:09:01.938Z,101163.81
2022-11-29T10:11:39.875Z,101156.66
2022-11-29T10:14:50.393Z,101156.72
2022-11-29T10:17:38.559Z,101153.41
2022-11-29T10:20:11.026Z,101150.31
2022-11-29T10:22:45.652Z,101148.34
2022-11-29T10:25:23.949Z,101146.03
2022-11-29T10:27:52.980Z,101146.06
2022-11-29T10:30:21.336Z,101147.03
2022-11-29T10:32:56.635Z,101143.00
2022-11-29T10:35:24.466Z,101134.25
2022-11-29T10:38:28.578Z,101130.16
2022-11-29T10:40:47.449Z,101129.84
2022-11-29T10:43:15.729Z,101128.38
2022-11-29T10:45:50.458Z,101126.44
2022-11-29T10:48:21.723Z,101122.16
2022-11-29T10:50:51.599Z,101130.78
2022-11-29T10:53:30.929Z,101122.03
2022-11-29T10:56:14.565Z,101130.63
2022-11-29T10:58:54.928Z,101124.34
2022-11-29T11:01:23.095Z,101120.31
2022-11-29T11:03:55.662Z,101118.59
2022-11-29T11:06:42.410Z,101120.56
2022-11-29T11:09:19.113Z,101121.50
2022-11-29T11:12:01.751Z,101119.19
2022-11-29T11:14:32.000Z,101123.81
2022-11-29T11:17:26.075Z,101124.66
2022-11-29T11:20:02.123Z,101124.91
2022-11-29T11:22:32.588Z,101124.66
2022-11-29T11:25:04.345Z,101124.81
2022-11-29T11:27:35.677Z,101120.41
2022-11-29T11:30:05.945Z,101126.38
2022-11-29T11:32:33.563Z,101130.78
2022-11-29T11:35:02.745Z,101128.09
2022-11-29T11:37:32.975Z,101127.31
2022-11-29T11:40:20.840Z,101129.00
2022-11-29T11:42:48.733Z,101129.31
2022-11-29T11:45:16.260Z,101121.53
2022-11-29T11:47:55.653Z,101126.03
2022-11-29T11:50:42.028Z,101126.81
2022-11-29T11:53:23.993Z,101125.34
2022-11-29T11:56:04.948Z,101131.97
2022-11-29T11:58:37.696Z,101131.81
2022-11-29T12:01:08.973Z,101129.63
2022-11-29T12:03:52.843Z,101124.38
2022-11-29T12:06:50.821Z,101131.38
2022-11-29T12:09:49.715Z,101128.44
2022-11-29T12:12:39.103Z,101127.78
2022-11-29T12:15:32.967Z,101126.34
2022-11-29T12:18:16.835Z,101139.22
2022-11-29T12:21:17.594Z,101133.56
2022-11-29T12:23:49.381Z,101127.16
2022-11-29T12:26:55.369Z,101126.75
2022-11-29T12:29:16.887Z,101133.72
2022-11-29T12:31:44.964Z,101128.91
2022-11-29T12:34:44.085Z,101124.78
2022-11-29T12:37:24.596Z,101134.06
2022-11-29T12:40:02.952Z,101128.72
2022-11-29T12:42:50.799Z,101130.13
2022-11-29T12:45:42.883Z,101125.91
2022-11-29T12:48:13.146Z,101127.09
2022-11-29T12:50:47.360Z,101127.19
2022-11-29T12:53:42.556Z,101131.72
2022-11-29T12:56:24.781Z,101128.94
2022-11-29T12:59:01.451Z,101130.31
2022-11-29T13:02:11.955Z,101128.06
2022-11-29T13:04:56.503Z,101134.50
2022-11-29T13:07:36.034Z,101128.50
2022-11-29T13:10:17.718Z,101128.31
2022-11-29T13:12:55.989Z,101123.38
2022-11-29T13:15:43.630Z,101124.72
2022-11-29T13:18:25.805Z,101121.78
2022-11-29T13:21:01.826Z,101121.53
2022-11-29T13:24:12.189Z,101122.84
2022-11-29T13:26:41.358Z,101126.69
2022-11-29T13:29:16.502Z,101128.75
2022-11-29T13:31:45.715Z,101120.94
2022-11-29T13:34:47.881Z,101131.56
2022-11-29T13:37:30.145Z,101125.44
2022-11-29T13:40:24.858Z,101127.22
2022-11-29T13:43:05.755Z,101123.47
2022-11-29T13:45:55.134Z,101122.72
2022-11-29T13:48:29.448Z,101124.69
2022-11-29T13:50:58.093Z,101132.28
2022-11-29T13:53:45.269Z,101123.44
2022-11-29T13:56:36.116Z,101125.81
2022-11-29T13:59:13.211Z,101122.44
2022-11-29T14:01:51.105Z,101123.50
2022-11-29T14:04:21.868Z,101117.97
2022-11-29T14:06:50.375Z,101123.50
2022-11-29T14:09:26.090Z,101127.63
2022-11-29T14:11:57.161Z,101119.75
2022-11-29T14:14:31.597Z,101111.88
2022-11-29T14:17:02.139Z,101121.88
2022-11-29T14:19:35.377Z,101121.38
2022-11-29T14:22:18.528Z,101124.31
2022-11-29T14:25:00.765Z,101110.38
2022-11-29T14:27:28.734Z,101119.75
2022-11-29T14:29:56.399Z,101119.72
2022-11-29T14:32:24.211Z,101123.66
2022-11-29T14:35:05.066Z,101129.91
2022-11-29T14:37:51.424Z,101125.34
2022-11-29T14:40:42.719Z,101127.94
2022-11-29T14:43:24.906Z,101117.44
2022-11-29T14:46:15.161Z,101128.28
2022-11-29T14:49:05.560Z,101126.97
2022-11-29T14:51:34.928Z,101131.28
2022-11-29T14:54:05.500Z,101127.13
2022-11-29T14:56:38.999Z,101128.69
2022-11-29T14:59:41.384Z,101128.91
2022-11-29T15:02:50.725Z,101127.50
2022-11-29T15:05:21.333Z,101132.44
2022-11-29T15:08:15.184Z,101141.63
2022-11-29T15:10:50.067Z,101131.66
2022-11-29T15:13:28.803Z,101135.88
2022-11-29T15:16:18.541Z,101137.81
2022-11-29T15:19:13.406Z,101140.69
2022-11-29T15:22:20.228Z,101136.53
2022-11-29T15:24:54.952Z,101130.03
2022-11-29T15:27:23.599Z,101128.44
2022-11-29T15:29:52.922Z,101128.09
2022-11-29T15:32:26.122Z,101119.22
2022-11-29T15:34:55.925Z,101130.19
2022-11-29T15:37:33.670Z,101125.75
2022-11-29T15:40:05.241Z,101131.41
2022-11-29T15:42:49.964Z,101135.00
2022-11-29T15:45:34.359Z,101134.44
2022-11-29T15:48:19.881Z,101139.38
2022-11-29T15:50:51.976Z,101129.06
2022-11-29T15:53:24.746Z,101135.56
2022-11-29T15:55:56.826Z,101128.97
2022-11-29T15:58:29.942Z,101137.91
2022-11-29T16:01:00.683Z,101130.31
2022-11-29T16:03:35.229Z,101133.38
2022-11-29T16:06:19.195Z,101131.00
2022-11-29T16:08:48.766Z,101131.19
2022-11-29T16:11:21.009Z,101131.59
2022-11-29T16:14:20.974Z,101134.09
2022-11-29T16:16:55.114Z,101133.25
2022-11-29T16:19:26.222Z,101126.34
2022-11-29T16:22:11.936Z,101127.94
2022-11-29T16:24:48.335Z,101130.56
2022-11-29T16:27:16.605Z,101128.88
2022-11-29T16:29:46.096Z,101133.44
2022-11-29T16:32:15.799Z,101135.19
2022-11-29T16:34:45.363Z,101134.94
2022-11-29T16:37:20.787Z,101135.13
2022-11-29T16:39:51.878Z,101140.88
2022-11-29T16:42:25.873Z,101138.97
2022-11-29T16:44:56.704Z,101139.06
2022-11-29T16:47:28.018Z,101138.44
2022-11-29T16:50:01.475Z,101136.94
2022-11-29T16:52:31.938Z,101137.16
2022-11-29T16:55:00.639Z,101136.00
2022-11-29T16:57:29.837Z,101133.38
2022-11-29T16:59:57.546Z,101141.22
2022-11-29T17:02:28.915Z,101147.00
2022-11-29T17:04:58.209Z,101142.41
2022-11-29T17:07:33.964Z,101149.38
2022-11-29T17:10:02.240Z,101147.63
2022-11-29T17:12:30.182Z,101149.47
2022-11-29T17:14:58.450Z,101145.22
2022-11-29T17:17:26.676Z,101148.53
2022-11-29T17:19:55.422Z,101157.63
2022-11-29T17:22:23.052Z,101155.50
2022-11-29T17:24:50.904Z,101162.16
2022-11-29T17:27:18.889Z,101155.88
2022-11-29T17:29:47.524Z,101163.84
2022-11-29T17:32:15.173Z,101171.69
2022-11-29T17:34:42.850Z,101162.28
2022-11-29T17:37:11.282Z,101167.97
2022-11-29T17:39:38.876Z,101171.59
2022-11-29T17:42:06.981Z,101178.34
2022-11-29T17:44:34.711Z,101179.78
2022-11-29T17:47:02.389Z,101185.75
2022-11-29T17:49:30.628Z,101186.00
2022-11-29T17:51:59.103Z,101193.09
2022-11-29T17:54:26.931Z,101182.88
2022-11-29T17:56:55.623Z,101190.31
2022-11-29T17:59:23.333Z,101187.63
2022-11-29T18:01:51.573Z,101182.66
2022-11-29T18:04:19.062Z,101183.81
2022-11-29T18:06:50.143Z,101188.59
2022-11-29T18:09:19.684Z,101185.13
2022-11-29T18:11:50.357Z,101191.81
2022-11-29T18:14:23.980Z,101188.28
2022-11-29T18:16:52.730Z,101184.06
2022-11-29T18:19:22.101Z,101185.41
2022-11-29T18:21:50.443Z,101188.31
2022-11-29T18:24:18.488Z,101196.16
2022-11-29T18:26:46.995Z,101203.84
2022-11-29T18:29:15.679Z,101203.22
2022-11-29T18:31:45.546Z,101203.63
2022-11-29T18:34:14.497Z,101213.09
2022-11-29T18:36:47.219Z,101211.56
2022-11-29T18:39:20.140Z,101218.06
2022-11-29T18:41:50.647Z,101218.34
2022-11-29T18:44:21.849Z,101217.69
2022-11-29T18:46:50.127Z,101222.66
2022-11-29T18:49:18.782Z,101217.50
2022-11-29T18:51:48.100Z,101227.06
2022-11-29T18:54:18.243Z,101235.44
2022-11-29T18:56:46.843Z,101235.97
2022-11-29T18:59:17.450Z,101238.50
2022-11-29T19:01:48.028Z,101245.94
2022-11-29T19:04:19.791Z,101237.53
2022-11-29T19:06:48.026Z,101244.94
2022-11-29T19:09:21.169Z,101251.84
2022-11-29T19:11:50.677Z,101260.94
2022-11-29T19:14:19.651Z,101258.63
2022-11-29T19:16:48.937Z,101262.63
2022-11-29T19:19:19.083Z,101269.38
2022-11-29T19:21:47.392Z,101262.03
2022-11-29T19:24:17.783Z,101261.28
2022-11-29T19:26:47.501Z,101264.81
2022-11-29T19:29:16.000Z,101263.25
2022-11-29T19:31:43.989Z,101269.59
2022-11-29T19:34:12.056Z,101272.19
2022-11-29T19:36:44.828Z,101271.66
2022-11-29T19:39:14.922Z,101272.00
2022-11-29T19:41:48.034Z,101274.88
2022-11-29T19:44:15.834Z,101265.84
2022-11-29T19:46:47.156Z,101274.97
2022-11-29T19:49:15.326Z,101266.63
2022-11-29T19:51:43.693Z,101277.94
2022-11-29T19:54:12.954Z,101274.19
2022-11-29T19:56:40.650Z,101275.16
2022-11-29T19:59:09.136Z,101278.13
2022-11-29T20:01:42.727Z,101279.63
2022-11-29T20:04:11.895Z,101276.94
2022-11-29T20:06:39.783Z,101282.00
2022-11-29T20:09:07.947Z,101276.78
2022-11-29T20:11:35.897Z,101286.59
2022-11-29T20:14:05.581Z,101282.28
2022-11-29T20:16:34.985Z,101284.44
2022-11-29T20:19:02.968Z,101277.03
2022-11-29T20:21:32.869Z,101285.13
2022-11-29T20:24:06.362Z,101283.94
2022-11-29T20:26:36.929Z,101282.59
2022-11-29T20:29:06.630Z,101277.03
2022-11-29T20:31:36.569Z,101267.38
2022-11-29T20:34:07.267Z,101278.88
2022-11-29T20:36:41.021Z,101278.78
2022-11-29T20:39:28.757Z,101288.22
2022-11-29T20:42:33.352Z,101286.28
2022-11-29T20:45:02.335Z,101280.53
2022-11-29T20:47:39.388Z,101282.72
2022-11-29T20:50:08.116Z,101272.63
2022-11-29T20:52:51.660Z,101281.03
2022-11-29T20:55:21.228Z,101281.13
2022-11-29T20:57:49.873Z,101281.97
2022-11-29T21:00:18.305Z,101288.88
2022-11-29T21:02:46.488Z,101284.06
2022-11-29T21:05:16.199Z,101283.44
2022-11-29T21:07:45.432Z,101289.34
2022-11-29T21:10:15.466Z,101284.34
2022-11-29T21:12:45.846Z,101280.94
2022-11-29T21:15:15.002Z,101277.72
2022-11-29T21:17:43.319Z,101280.09
2022-11-29T21:20:27.002Z,101277.56
2022-11-29T21:23:20.086Z,101278.66
2022-11-29T21:25:57.563Z,101274.50
2022-11-29T21:28:32.524Z,101270.44
2022-11-29T21:31:00.946Z,101274.22
2022-11-29T21:33:28.929Z,101273.47
2022-11-29T21:35:58.181Z,101267.59
2022-11-29T21:38:27.026Z,101267.66
2022-11-29T21:40:54.880Z,101264.31
2022-11-29T21:43:43.364Z,101261.59
2022-11-29T21:46:10.667Z,101260.78
2022-11-29T21:48:38.323Z,101262.81
2022-11-29T21:51:07.824Z,101264.44
2022-11-29T21:53:37.431Z,101258.38
2022-11-29T21:56:08.322Z,101260.06
2022-11-29T21:58:37.013Z,101260.50
2022-11-29T22:01:14.432Z,101260.50
2022-11-29T22:03:42.908Z,101253.59
2022-11-29T22:06:13.869Z,101257.84
2022-11-29T22:08:42.709Z,101254.34
2022-11-29T22:11:13.521Z,101246.75
2022-11-29T22:14:01.796Z,101254.75
2022-11-29T22:16:30.407Z,101249.34
2022-11-29T22:18:58.671Z,101253.66
2022-11-29T22:21:26.446Z,101242.41
2022-11-29T22:23:54.145Z,101249.19
2022-11-29T22:26:22.246Z,101250.72
2022-11-29T22:28:50.029Z,101250.72
2022-11-29T22:31:18.706Z,101255.59
2022-11-29T22:33:46.377Z,101255.34
2022-11-29T22:36:13.996Z,101243.66
2022-11-29T22:38:42.037Z,101248.41
2022-11-29T22:41:11.852Z,101251.50
2022-11-29T22:43:40.793Z,101253.28
2022-11-29T22:46:12.259Z,101254.53
2022-11-29T22:48:41.751Z,101252.03
2022-11-29T22:51:11.997Z,101255.47
2022-11-29T22:53:42.495Z,101250.53
2022-11-29T22:56:11.819Z,101251.44
2022-11-29T22:58:39.503Z,101256.81
2022-11-29T23:01:14.249Z,101244.72
2022-11-29T23:03:45.641Z,101245.53
2022-11-29T23:06:19.105Z,101256.84
2022-11-29T23:08:47.809Z,101256.00
2022-11-29T23:11:19.020Z,101250.91
2022-11-29T23:13:47.227Z,101249.09
2022-11-29T23:16:17.330Z,101252.59
2022-11-29T23:18:45.887Z,101251.81
2022-11-29T23:21:16.395Z,101247.44
2022-11-29T23:23:45.269Z,101251.00
2022-11-29T23:26:39.676Z,101248.50
2022-11-29T23:29:18.511Z,101243.47
2022-11-29T23:31:46.957Z,101245.28
2022-11-29T23:34:14.797Z,101247.75
2022-11-29T23:36:45.849Z,101248.75
2022-11-29T23:39:17.844Z,101256.59
2022-11-29T23:41:46.033Z,101250.56
2022-11-29T23:44:13.861Z,101248.56
2022-11-29T23:46:41.493Z,101255.78
2022-11-29T23:49:09.088Z,101252.09
2022-11-29T23:51:37.415Z,101252.06
2022-11-29T23:54:05.329Z,101257.75
2022-11-29T23:56:35.491Z,101260.78
2022-11-29T23:59:03.964Z,101256.34
